sensor_id;sensor_type;location;lat;lon;timestamp;P1;durP1;ratioP1;P2;durP2;ratioP2
60973;SDS011;46846;51.528;5.076;2022-08-03T00:00:41;395.88;;;376.48;;
60973;SDS011;46846;51.528;5.076;2022-08-03T00:03:06;391.63;;;372.20;;
60973;SDS011;46846;51.528;5.076;2022-08-03T00:05:32;388.70;;;369.55;;
60973;SDS011;46846;51.528;5.076;2022-08-03T00:07:58;419.17;;;398.80;;
60973;SDS011;46846;51.528;5.076;2022-08-03T00:10:24;386.90;;;367.13;;
60973;SDS011;46846;51.528;5.076;2022-08-03T00:12:50;398.20;;;378.52;;
60973;SDS011;46846;51.528;5.076;2022-08-03T00:15:15;394.33;;;374.38;;
60973;SDS011;46846;51.528;5.076;2022-08-03T00:17:41;395.38;;;375.75;;
60973;SDS011;46846;51.528;5.076;2022-08-03T00:20:06;410.20;;;388.63;;
60973;SDS011;46846;51.528;5.076;2022-08-03T00:22:33;384.25;;;365.13;;
60973;SDS011;46846;51.528;5.076;2022-08-03T00:24:59;399.05;;;378.85;;
60973;SDS011;46846;51.528;5.076;2022-08-03T00:27:24;403.02;;;383.17;;
60973;SDS011;46846;51.528;5.076;2022-08-03T00:29:50;398.42;;;378.88;;
60973;SDS011;46846;51.528;5.076;2022-08-03T00:32:15;390.35;;;370.20;;
60973;SDS011;46846;51.528;5.076;2022-08-03T00:34:41;390.08;;;370.77;;
60973;SDS011;46846;51.528;5.076;2022-08-03T00:37:06;405.80;;;385.35;;
60973;SDS011;46846;51.528;5.076;2022-08-03T00:39:31;388.98;;;369.52;;
60973;SDS011;46846;51.528;5.076;2022-08-03T00:42:00;389.27;;;369.98;;
60973;SDS011;46846;51.528;5.076;2022-08-03T00:44:26;390.88;;;371.60;;
60973;SDS011;46846;51.528;5.076;2022-08-03T00:46:52;388.98;;;369.23;;
60973;SDS011;46846;51.528;5.076;2022-08-03T00:49:17;389.50;;;370.30;;
60973;SDS011;46846;51.528;5.076;2022-08-03T00:51:42;394.75;;;375.20;;
60973;SDS011;46846;51.528;5.076;2022-08-03T00:54:08;387.70;;;368.35;;
60973;SDS011;46846;51.528;5.076;2022-08-03T00:56:34;402.83;;;382.55;;
60973;SDS011;46846;51.528;5.076;2022-08-03T00:59:00;400.75;;;380.63;;
60973;SDS011;46846;51.528;5.076;2022-08-03T01:01:30;377.02;;;358.33;;
60973;SDS011;46846;51.528;5.076;2022-08-03T01:03:55;389.13;;;369.58;;
60973;SDS011;46846;51.528;5.076;2022-08-03T01:06:35;395.13;;;375.45;;
60973;SDS011;46846;51.528;5.076;2022-08-03T01:12:02;389.35;;;369.80;;
60973;SDS011;46846;51.528;5.076;2022-08-03T01:14:39;384.35;;;365.38;;
60973;SDS011;46846;51.528;5.076;2022-08-03T01:22:36;382.27;;;363.38;;
60973;SDS011;46846;51.528;5.076;2022-08-03T01:28:16;377.30;;;358.30;;
60973;SDS011;46846;51.528;5.076;2022-08-03T01:30:53;388.67;;;369.10;;
60973;SDS011;46846;51.528;5.076;2022-08-03T01:33:27;385.85;;;366.80;;
60973;SDS011;46846;51.528;5.076;2022-08-03T01:36:16;390.48;;;370.92;;
60973;SDS011;46846;51.528;5.076;2022-08-03T01:38:57;375.17;;;356.27;;
60973;SDS011;46846;51.528;5.076;2022-08-03T01:41:29;389.48;;;369.08;;
60973;SDS011;46846;51.528;5.076;2022-08-03T01:43:58;394.73;;;375.33;;
60973;SDS011;46846;51.528;5.076;2022-08-03T01:46:26;372.52;;;353.63;;
60973;SDS011;46846;51.528;5.076;2022-08-03T01:48:55;369.63;;;351.27;;
60973;SDS011;46846;51.528;5.076;2022-08-03T01:51:22;387.98;;;368.85;;
60973;SDS011;46846;51.528;5.076;2022-08-03T01:53:48;391.13;;;371.58;;
60973;SDS011;46846;51.528;5.076;2022-08-03T01:56:16;378.98;;;359.55;;
60973;SDS011;46846;51.528;5.076;2022-08-03T01:58:43;369.42;;;350.80;;
60973;SDS011;46846;51.528;5.076;2022-08-03T02:01:13;385.30;;;365.92;;
60973;SDS011;46846;51.528;5.076;2022-08-03T02:03:40;379.60;;;360.30;;
60973;SDS011;46846;51.528;5.076;2022-08-03T02:06:09;375.67;;;356.75;;
60973;SDS011;46846;51.528;5.076;2022-08-03T02:08:36;384.67;;;365.30;;
60973;SDS011;46846;51.528;5.076;2022-08-03T02:11:04;365.35;;;346.58;;
60973;SDS011;46846;51.528;5.076;2022-08-03T02:13:31;375.77;;;357.17;;
60973;SDS011;46846;51.528;5.076;2022-08-03T02:15:58;367.70;;;349.15;;
60973;SDS011;46846;51.528;5.076;2022-08-03T02:18:24;376.42;;;357.70;;
60973;SDS011;46846;51.528;5.076;2022-08-03T02:20:51;371.23;;;352.67;;
60973;SDS011;46846;51.528;5.076;2022-08-03T02:23:18;382.20;;;363.25;;
60973;SDS011;46846;51.528;5.076;2022-08-03T02:25:45;379.00;;;359.67;;
60973;SDS011;46846;51.528;5.076;2022-08-03T02:28:20;377.83;;;358.85;;
60973;SDS011;46846;51.528;5.076;2022-08-03T02:30:51;369.10;;;350.60;;
60973;SDS011;46846;51.528;5.076;2022-08-03T02:33:20;364.13;;;346.08;;
60973;SDS011;46846;51.528;5.076;2022-08-03T02:35:50;372.35;;;353.83;;
60973;SDS011;46846;51.528;5.076;2022-08-03T02:38:18;377.90;;;358.80;;
60973;SDS011;46846;51.528;5.076;2022-08-03T02:40:47;370.95;;;352.05;;
60973;SDS011;46846;51.528;5.076;2022-08-03T02:43:15;367.23;;;348.70;;
60973;SDS011;46846;51.528;5.076;2022-08-03T02:45:45;363.90;;;345.80;;
60973;SDS011;46846;51.528;5.076;2022-08-03T02:48:16;386.23;;;366.80;;
60973;SDS011;46846;51.528;5.076;2022-08-03T02:50:44;378.83;;;359.92;;
60973;SDS011;46846;51.528;5.076;2022-08-03T02:53:11;360.98;;;342.85;;
60973;SDS011;46846;51.528;5.076;2022-08-03T02:55:37;376.33;;;357.73;;
60973;SDS011;46846;51.528;5.076;2022-08-03T02:58:04;388.15;;;369.15;;
60973;SDS011;46846;51.528;5.076;2022-08-03T03:00:31;373.50;;;355.08;;
60973;SDS011;46846;51.528;5.076;2022-08-03T03:02:57;368.88;;;350.50;;
60973;SDS011;46846;51.528;5.076;2022-08-03T03:05:25;371.85;;;353.33;;
60973;SDS011;46846;51.528;5.076;2022-08-03T03:07:52;366.23;;;347.73;;
60973;SDS011;46846;51.528;5.076;2022-08-03T03:10:22;386.33;;;367.08;;
60973;SDS011;46846;51.528;5.076;2022-08-03T03:12:50;375.65;;;357.13;;
60973;SDS011;46846;51.528;5.076;2022-08-03T03:15:19;372.85;;;354.58;;
60973;SDS011;46846;51.528;5.076;2022-08-03T03:17:45;362.02;;;343.98;;
60973;SDS011;46846;51.528;5.076;2022-08-03T03:20:13;366.50;;;348.20;;
60973;SDS011;46846;51.528;5.076;2022-08-03T03:22:40;373.83;;;355.27;;
60973;SDS011;46846;51.528;5.076;2022-08-03T03:25:07;369.38;;;350.98;;
60973;SDS011;46846;51.528;5.076;2022-08-03T03:27:33;369.30;;;351.08;;
60973;SDS011;46846;51.528;5.076;2022-08-03T03:29:59;357.20;;;339.40;;
60973;SDS011;46846;51.528;5.076;2022-08-03T03:32:27;371.77;;;353.55;;
60973;SDS011;46846;51.528;5.076;2022-08-03T03:34:54;363.70;;;345.33;;
60973;SDS011;46846;51.528;5.076;2022-08-03T03:37:20;365.23;;;346.52;;
60973;SDS011;46846;51.528;5.076;2022-08-03T03:39:46;358.33;;;340.67;;
60973;SDS011;46846;51.528;5.076;2022-08-03T03:42:11;364.80;;;346.52;;
60973;SDS011;46846;51.528;5.076;2022-08-03T03:44:36;373.90;;;355.25;;
60973;SDS011;46846;51.528;5.076;2022-08-03T03:47:02;380.02;;;361.08;;
60973;SDS011;46846;51.528;5.076;2022-08-03T03:49:28;359.35;;;341.35;;
60973;SDS011;46846;51.528;5.076;2022-08-03T03:51:54;363.30;;;345.30;;
60973;SDS011;46846;51.528;5.076;2022-08-03T03:54:20;357.17;;;339.63;;
60973;SDS011;46846;51.528;5.076;2022-08-03T03:56:45;372.15;;;353.92;;
60973;SDS011;46846;51.528;5.076;2022-08-03T03:59:11;355.83;;;337.80;;
60973;SDS011;46846;51.528;5.076;2022-08-03T04:01:37;356.42;;;338.60;;
60973;SDS011;46846;51.528;5.076;2022-08-03T04:04:03;356.20;;;338.25;;
60973;SDS011;46846;51.528;5.076;2022-08-03T04:06:47;358.38;;;340.52;;
60973;SDS011;46846;51.528;5.076;2022-08-03T04:09:33;356.90;;;339.25;;
60973;SDS011;46846;51.528;5.076;2022-08-03T04:12:18;347.65;;;330.08;;
60973;SDS011;46846;51.528;5.076;2022-08-03T04:14:48;365.27;;;347.23;;
60973;SDS011;46846;51.528;5.076;2022-08-03T04:17:15;364.45;;;346.60;;
60973;SDS011;46846;51.528;5.076;2022-08-03T04:19:43;348.17;;;330.58;;
60973;SDS011;46846;51.528;5.076;2022-08-03T04:22:12;367.75;;;349.55;;
60973;SDS011;46846;51.528;5.076;2022-08-03T04:24:48;354.08;;;336.23;;
60973;SDS011;46846;51.528;5.076;2022-08-03T04:27:19;352.23;;;334.73;;
60973;SDS011;46846;51.528;5.076;2022-08-03T04:29:48;344.17;;;326.60;;
60973;SDS011;46846;51.528;5.076;2022-08-03T04:32:15;351.80;;;334.33;;
60973;SDS011;46846;51.528;5.076;2022-08-03T04:34:41;363.90;;;345.42;;
60973;SDS011;46846;51.528;5.076;2022-08-03T04:37:11;344.67;;;327.23;;
60973;SDS011;46846;51.528;5.076;2022-08-03T04:39:42;346.92;;;328.77;;
60973;SDS011;46846;51.528;5.076;2022-08-03T04:42:09;346.50;;;329.05;;
60973;SDS011;46846;51.528;5.076;2022-08-03T04:44:38;355.63;;;337.92;;
60973;SDS011;46846;51.528;5.076;2022-08-03T04:47:05;337.77;;;321.08;;
60973;SDS011;46846;51.528;5.076;2022-08-03T04:49:31;341.48;;;324.42;;
60973;SDS011;46846;51.528;5.076;2022-08-03T04:51:57;356.40;;;338.50;;
60973;SDS011;46846;51.528;5.076;2022-08-03T04:54:22;339.55;;;322.77;;
60973;SDS011;46846;51.528;5.076;2022-08-03T04:56:47;351.98;;;334.58;;
60973;SDS011;46846;51.528;5.076;2022-08-03T04:59:13;355.65;;;337.73;;
60973;SDS011;46846;51.528;5.076;2022-08-03T05:01:39;356.15;;;338.30;;
60973;SDS011;46846;51.528;5.076;2022-08-03T05:04:06;352.50;;;334.70;;
60973;SDS011;46846;51.528;5.076;2022-08-03T05:06:31;344.42;;;327.08;;
60973;SDS011;46846;51.528;5.076;2022-08-03T05:08:57;349.92;;;331.98;;
60973;SDS011;46846;51.528;5.076;2022-08-03T05:11:22;351.52;;;334.17;;
60973;SDS011;46846;51.528;5.076;2022-08-03T05:13:47;355.77;;;338.05;;
60973;SDS011;46846;51.528;5.076;2022-08-03T05:16:13;341.75;;;324.63;;
60973;SDS011;46846;51.528;5.076;2022-08-03T05:18:42;345.00;;;327.38;;
60973;SDS011;46846;51.528;5.076;2022-08-03T05:21:08;348.02;;;330.40;;
60973;SDS011;46846;51.528;5.076;2022-08-03T05:23:34;339.33;;;322.60;;
60973;SDS011;46846;51.528;5.076;2022-08-03T05:25:59;357.48;;;339.38;;
60973;SDS011;46846;51.528;5.076;2022-08-03T05:28:25;357.38;;;338.73;;
60973;SDS011;46846;51.528;5.076;2022-08-03T05:30:50;361.00;;;342.80;;
60973;SDS011;46846;51.528;5.076;2022-08-03T05:33:15;353.17;;;334.95;;
60973;SDS011;46846;51.528;5.076;2022-08-03T05:35:41;342.92;;;326.05;;
60973;SDS011;46846;51.528;5.076;2022-08-03T05:38:06;347.35;;;329.88;;
60973;SDS011;46846;51.528;5.076;2022-08-03T05:40:32;340.30;;;323.05;;
60973;SDS011;46846;51.528;5.076;2022-08-03T05:42:57;357.65;;;339.83;;
60973;SDS011;46846;51.528;5.076;2022-08-03T05:45:23;335.30;;;318.52;;
60973;SDS011;46846;51.528;5.076;2022-08-03T05:47:49;342.83;;;325.67;;
60973;SDS011;46846;51.528;5.076;2022-08-03T05:50:15;335.60;;;318.95;;
60973;SDS011;46846;51.528;5.076;2022-08-03T05:52:42;353.48;;;335.60;;
60973;SDS011;46846;51.528;5.076;2022-08-03T05:55:08;346.77;;;328.83;;
60973;SDS011;46846;51.528;5.076;2022-08-03T05:57:34;346.40;;;328.35;;
60973;SDS011;46846;51.528;5.076;2022-08-03T06:00:03;355.38;;;337.65;;
60973;SDS011;46846;51.528;5.076;2022-08-03T06:02:31;344.08;;;327.05;;
60973;SDS011;46846;51.528;5.076;2022-08-03T06:04:57;346.58;;;329.27;;
60973;SDS011;46846;51.528;5.076;2022-08-03T06:07:22;353.55;;;335.30;;
60973;SDS011;46846;51.528;5.076;2022-08-03T06:09:48;340.23;;;323.23;;
60973;SDS011;46846;51.528;5.076;2022-08-03T06:12:13;360.48;;;342.27;;
60973;SDS011;46846;51.528;5.076;2022-08-03T06:14:38;341.52;;;324.52;;
60973;SDS011;46846;51.528;5.076;2022-08-03T06:17:04;345.10;;;327.52;;
60973;SDS011;46846;51.528;5.076;2022-08-03T06:19:29;347.05;;;329.63;;
60973;SDS011;46846;51.528;5.076;2022-08-03T06:21:54;339.75;;;322.50;;
60973;SDS011;46846;51.528;5.076;2022-08-03T06:24:20;343.17;;;325.98;;
60973;SDS011;46846;51.528;5.076;2022-08-03T06:26:45;352.63;;;335.17;;
60973;SDS011;46846;51.528;5.076;2022-08-03T06:29:10;346.60;;;329.35;;
60973;SDS011;46846;51.528;5.076;2022-08-03T06:31:36;346.25;;;327.90;;
60973;SDS011;46846;51.528;5.076;2022-08-03T06:34:02;346.17;;;328.52;;
60973;SDS011;46846;51.528;5.076;2022-08-03T06:36:29;342.70;;;325.35;;
60973;SDS011;46846;51.528;5.076;2022-08-03T06:38:56;358.73;;;340.77;;
60973;SDS011;46846;51.528;5.076;2022-08-03T06:41:22;352.48;;;335.00;;
60973;SDS011;46846;51.528;5.076;2022-08-03T06:43:48;358.48;;;339.52;;
60973;SDS011;46846;51.528;5.076;2022-08-03T06:46:13;344.50;;;327.20;;
60973;SDS011;46846;51.528;5.076;2022-08-03T06:48:38;337.38;;;320.13;;
60973;SDS011;46846;51.528;5.076;2022-08-03T06:51:04;345.45;;;328.15;;
60973;SDS011;46846;51.528;5.076;2022-08-03T06:53:29;350.23;;;332.60;;
60973;SDS011;46846;51.528;5.076;2022-08-03T06:55:54;361.67;;;343.60;;
60973;SDS011;46846;51.528;5.076;2022-08-03T06:58:20;353.77;;;336.15;;
60973;SDS011;46846;51.528;5.076;2022-08-03T07:00:45;354.20;;;336.17;;
60973;SDS011;46846;51.528;5.076;2022-08-03T07:03:10;334.27;;;317.45;;
60973;SDS011;46846;51.528;5.076;2022-08-03T07:05:36;353.75;;;335.73;;
60973;SDS011;46846;51.528;5.076;2022-08-03T07:08:01;342.45;;;325.30;;
60973;SDS011;46846;51.528;5.076;2022-08-03T07:10:27;344.55;;;327.00;;
60973;SDS011;46846;51.528;5.076;2022-08-03T07:12:52;348.23;;;329.52;;
60973;SDS011;46846;51.528;5.076;2022-08-03T07:15:18;337.50;;;320.70;;
60973;SDS011;46846;51.528;5.076;2022-08-03T07:17:44;356.15;;;338.40;;
60973;SDS011;46846;51.528;5.076;2022-08-03T07:20:09;347.35;;;329.75;;
60973;SDS011;46846;51.528;5.076;2022-08-03T07:22:35;345.20;;;327.38;;
60973;SDS011;46846;51.528;5.076;2022-08-03T07:25:00;353.17;;;334.85;;
60973;SDS011;46846;51.528;5.076;2022-08-03T07:27:26;349.65;;;331.95;;
60973;SDS011;46846;51.528;5.076;2022-08-03T07:29:53;361.27;;;343.30;;
60973;SDS011;46846;51.528;5.076;2022-08-03T07:32:19;355.08;;;336.73;;
60973;SDS011;46846;51.528;5.076;2022-08-03T07:34:44;360.05;;;342.00;;
60973;SDS011;46846;51.528;5.076;2022-08-03T07:37:10;364.40;;;345.65;;
60973;SDS011;46846;51.528;5.076;2022-08-03T07:39:35;363.10;;;344.88;;
60973;SDS011;46846;51.528;5.076;2022-08-03T07:42:00;363.20;;;344.98;;
60973;SDS011;46846;51.528;5.076;2022-08-03T07:44:26;353.13;;;334.25;;
60973;SDS011;46846;51.528;5.076;2022-08-03T07:46:51;351.02;;;333.50;;
60973;SDS011;46846;51.528;5.076;2022-08-03T07:49:16;354.42;;;335.42;;
60973;SDS011;46846;51.528;5.076;2022-08-03T07:51:42;368.00;;;349.73;;
60973;SDS011;46846;51.528;5.076;2022-08-03T07:54:07;366.13;;;347.40;;
60973;SDS011;46846;51.528;5.076;2022-08-03T07:56:34;353.30;;;335.15;;
60973;SDS011;46846;51.528;5.076;2022-08-03T07:59:00;374.75;;;355.52;;
60973;SDS011;46846;51.528;5.076;2022-08-03T08:01:26;366.88;;;348.42;;
60973;SDS011;46846;51.528;5.076;2022-08-03T08:03:52;369.52;;;351.02;;
60973;SDS011;46846;51.528;5.076;2022-08-03T08:06:17;358.08;;;339.70;;
60973;SDS011;46846;51.528;5.076;2022-08-03T08:08:43;371.77;;;352.73;;
60973;SDS011;46846;51.528;5.076;2022-08-03T08:11:08;368.50;;;350.08;;
60973;SDS011;46846;51.528;5.076;2022-08-03T08:13:34;374.73;;;356.15;;
60973;SDS011;46846;51.528;5.076;2022-08-03T08:16:01;386.60;;;366.75;;
60973;SDS011;46846;51.528;5.076;2022-08-03T08:18:27;366.80;;;348.20;;
60973;SDS011;46846;51.528;5.076;2022-08-03T08:20:54;362.10;;;343.88;;
60973;SDS011;46846;51.528;5.076;2022-08-03T08:23:19;372.50;;;353.58;;
60973;SDS011;46846;51.528;5.076;2022-08-03T08:25:48;374.10;;;354.38;;
60973;SDS011;46846;51.528;5.076;2022-08-03T08:28:17;384.67;;;365.10;;
60973;SDS011;46846;51.528;5.076;2022-08-03T08:30:43;381.35;;;362.02;;
60973;SDS011;46846;51.528;5.076;2022-08-03T08:33:09;379.90;;;360.52;;
60973;SDS011;46846;51.528;5.076;2022-08-03T08:35:35;389.45;;;369.13;;
60973;SDS011;46846;51.528;5.076;2022-08-03T08:38:00;389.10;;;369.58;;
60973;SDS011;46846;51.528;5.076;2022-08-03T08:40:26;392.95;;;373.10;;
60973;SDS011;46846;51.528;5.076;2022-08-03T08:42:52;385.98;;;366.73;;
60973;SDS011;46846;51.528;5.076;2022-08-03T08:45:17;388.55;;;368.67;;
60973;SDS011;46846;51.528;5.076;2022-08-03T08:47:44;382.77;;;363.42;;
60973;SDS011;46846;51.528;5.076;2022-08-03T08:50:10;395.50;;;375.85;;
60973;SDS011;46846;51.528;5.076;2022-08-03T08:52:38;385.83;;;366.15;;
60973;SDS011;46846;51.528;5.076;2022-08-03T08:55:06;388.95;;;369.25;;
60973;SDS011;46846;51.528;5.076;2022-08-03T08:57:35;397.23;;;377.13;;
60973;SDS011;46846;51.528;5.076;2022-08-03T09:00:08;396.92;;;376.77;;
60973;SDS011;46846;51.528;5.076;2022-08-03T09:02:38;392.52;;;373.13;;
60973;SDS011;46846;51.528;5.076;2022-08-03T09:05:03;389.02;;;369.38;;
60973;SDS011;46846;51.528;5.076;2022-08-03T09:07:29;401.77;;;381.77;;
60973;SDS011;46846;51.528;5.076;2022-08-03T09:09:55;397.38;;;377.17;;
60973;SDS011;46846;51.528;5.076;2022-08-03T09:12:20;394.83;;;375.08;;
60973;SDS011;46846;51.528;5.076;2022-08-03T09:14:46;402.88;;;382.48;;
60973;SDS011;46846;51.528;5.076;2022-08-03T09:17:12;392.13;;;372.75;;
60973;SDS011;46846;51.528;5.076;2022-08-03T09:19:37;398.73;;;377.92;;
60973;SDS011;46846;51.528;5.076;2022-08-03T09:22:06;403.73;;;382.65;;
60973;SDS011;46846;51.528;5.076;2022-08-03T09:24:33;410.02;;;389.48;;
60973;SDS011;46846;51.528;5.076;2022-08-03T09:26:59;412.65;;;392.13;;
60973;SDS011;46846;51.528;5.076;2022-08-03T09:29:25;419.23;;;398.08;;
60973;SDS011;46846;51.528;5.076;2022-08-03T09:31:58;405.23;;;384.75;;
60973;SDS011;46846;51.528;5.076;2022-08-03T09:34:25;418.40;;;397.48;;
60973;SDS011;46846;51.528;5.076;2022-08-03T09:36:52;401.67;;;381.27;;
60973;SDS011;46846;51.528;5.076;2022-08-03T09:41:52;418.45;;;397.30;;
60973;SDS011;46846;51.528;5.076;2022-08-03T09:44:34;425.50;;;404.50;;
60973;SDS011;46846;51.528;5.076;2022-08-03T09:47:01;421.48;;;400.55;;
60973;SDS011;46846;51.528;5.076;2022-08-03T09:49:27;425.67;;;404.08;;
60973;SDS011;46846;51.528;5.076;2022-08-03T09:51:53;422.67;;;401.33;;
60973;SDS011;46846;51.528;5.076;2022-08-03T09:54:28;412.52;;;391.92;;
60973;SDS011;46846;51.528;5.076;2022-08-03T09:56:55;433.08;;;411.38;;
60973;SDS011;46846;51.528;5.076;2022-08-03T09:59:25;436.52;;;414.75;;
60973;SDS011;46846;51.528;5.076;2022-08-03T10:01:52;421.95;;;400.80;;
60973;SDS011;46846;51.528;5.076;2022-08-03T10:04:18;434.10;;;412.10;;
60973;SDS011;46846;51.528;5.076;2022-08-03T10:06:44;436.67;;;415.02;;
60973;SDS011;46846;51.528;5.076;2022-08-03T10:09:25;424.15;;;402.85;;
60973;SDS011;46846;51.528;5.076;2022-08-03T10:11:50;430.73;;;409.40;;
60973;SDS011;46846;51.528;5.076;2022-08-03T10:14:16;429.23;;;407.85;;
60973;SDS011;46846;51.528;5.076;2022-08-03T10:16:45;429.95;;;408.63;;
60973;SDS011;46846;51.528;5.076;2022-08-03T10:19:11;426.38;;;404.90;;
60973;SDS011;46846;51.528;5.076;2022-08-03T10:21:39;434.17;;;412.77;;
60973;SDS011;46846;51.528;5.076;2022-08-03T10:24:07;429.58;;;407.60;;
60973;SDS011;46846;51.528;5.076;2022-08-03T10:26:35;431.15;;;408.63;;
60973;SDS011;46846;51.528;5.076;2022-08-03T10:29:03;423.20;;;402.00;;
60973;SDS011;46846;51.528;5.076;2022-08-03T10:31:34;438.90;;;416.70;;
60973;SDS011;46846;51.528;5.076;2022-08-03T10:34:10;429.83;;;408.30;;
60973;SDS011;46846;51.528;5.076;2022-08-03T10:36:42;434.77;;;412.60;;
60973;SDS011;46846;51.528;5.076;2022-08-03T10:39:09;460.42;;;436.95;;
60973;SDS011;46846;51.528;5.076;2022-08-03T10:41:38;452.15;;;430.08;;
60973;SDS011;46846;51.528;5.076;2022-08-03T10:44:05;433.88;;;411.95;;
60973;SDS011;46846;51.528;5.076;2022-08-03T10:46:34;442.58;;;421.00;;
60973;SDS011;46846;51.528;5.076;2022-08-03T10:49:02;441.52;;;419.02;;
60973;SDS011;46846;51.528;5.076;2022-08-03T10:51:29;435.75;;;414.25;;
60973;SDS011;46846;51.528;5.076;2022-08-03T10:53:56;448.77;;;426.35;;
60973;SDS011;46846;51.528;5.076;2022-08-03T10:59:19;433.57;;;411.90;;
60973;SDS011;46846;51.528;5.076;2022-08-03T11:04:37;438.00;;;416.17;;
60973;SDS011;46846;51.528;5.076;2022-08-03T11:09:41;449.85;;;427.67;;
60973;SDS011;46846;51.528;5.076;2022-08-03T11:12:30;439.75;;;418.15;;
60973;SDS011;46846;51.528;5.076;2022-08-03T11:14:57;441.15;;;419.40;;
60973;SDS011;46846;51.528;5.076;2022-08-03T11:17:25;445.05;;;422.80;;
60973;SDS011;46846;51.528;5.076;2022-08-03T11:19:51;463.13;;;440.17;;
60973;SDS011;46846;51.528;5.076;2022-08-03T11:22:18;455.55;;;432.67;;
60973;SDS011;46846;51.528;5.076;2022-08-03T11:35:13;459.40;;;436.47;;
60973;SDS011;46846;51.528;5.076;2022-08-03T11:40:36;470.80;;;447.50;;
60973;SDS011;46846;51.528;5.076;2022-08-03T11:46:07;461.17;;;438.58;;
60973;SDS011;46846;51.528;5.076;2022-08-03T11:51:02;473.38;;;450.35;;
60973;SDS011;46846;51.528;5.076;2022-08-03T11:53:29;462.85;;;440.05;;
60973;SDS011;46846;51.528;5.076;2022-08-03T11:55:57;454.02;;;431.85;;
60973;SDS011;46846;51.528;5.076;2022-08-03T11:58:24;466.70;;;443.30;;
60973;SDS011;46846;51.528;5.076;2022-08-03T12:00:50;465.00;;;442.00;;
60973;SDS011;46846;51.528;5.076;2022-08-03T12:03:17;479.73;;;456.02;;
60973;SDS011;46846;51.528;5.076;2022-08-03T12:05:45;484.08;;;460.60;;
60973;SDS011;46846;51.528;5.076;2022-08-03T12:08:16;462.65;;;440.05;;
60973;SDS011;46846;51.528;5.076;2022-08-03T12:10:51;470.30;;;446.95;;
60973;SDS011;46846;51.528;5.076;2022-08-03T12:13:18;469.92;;;446.55;;
60973;SDS011;46846;51.528;5.076;2022-08-03T12:15:49;472.52;;;449.30;;
60973;SDS011;46846;51.528;5.076;2022-08-03T12:18:16;457.38;;;434.73;;
60973;SDS011;46846;51.528;5.076;2022-08-03T12:20:43;465.98;;;442.63;;
60973;SDS011;46846;51.528;5.076;2022-08-03T12:23:11;468.42;;;445.50;;
60973;SDS011;46846;51.528;5.076;2022-08-03T12:25:37;471.02;;;447.90;;
60973;SDS011;46846;51.528;5.076;2022-08-03T12:28:11;484.42;;;460.85;;
60973;SDS011;46846;51.528;5.076;2022-08-03T12:30:43;480.05;;;456.50;;
60973;SDS011;46846;51.528;5.076;2022-08-03T12:33:24;480.48;;;456.67;;
60973;SDS011;46846;51.528;5.076;2022-08-03T12:36:05;478.05;;;454.50;;
60973;SDS011;46846;51.528;5.076;2022-08-03T12:38:35;459.48;;;437.05;;
60973;SDS011;46846;51.528;5.076;2022-08-03T12:41:03;470.63;;;447.67;;
60973;SDS011;46846;51.528;5.076;2022-08-03T12:43:31;474.95;;;451.45;;
60973;SDS011;46846;51.528;5.076;2022-08-03T12:46:10;482.67;;;458.83;;
60973;SDS011;46846;51.528;5.076;2022-08-03T12:51:25;469.90;;;446.20;;
60973;SDS011;46846;51.528;5.076;2022-08-03T12:53:52;478.73;;;455.02;;
60973;SDS011;46846;51.528;5.076;2022-08-03T12:56:18;480.88;;;456.83;;
60973;SDS011;46846;51.528;5.076;2022-08-03T12:58:44;475.30;;;452.02;;
60973;SDS011;46846;51.528;5.076;2022-08-03T13:01:11;492.40;;;468.45;;
60973;SDS011;46846;51.528;5.076;2022-08-03T13:03:41;483.00;;;459.27;;
60973;SDS011;46846;51.528;5.076;2022-08-03T13:06:14;473.45;;;449.02;;
60973;SDS011;46846;51.528;5.076;2022-08-03T13:08:41;484.02;;;459.73;;
60973;SDS011;46846;51.528;5.076;2022-08-03T13:11:21;471.45;;;448.52;;
60973;SDS011;46846;51.528;5.076;2022-08-03T13:13:50;496.08;;;471.92;;
60973;SDS011;46846;51.528;5.076;2022-08-03T13:16:17;482.42;;;458.95;;
60973;SDS011;46846;51.528;5.076;2022-08-03T13:18:43;481.75;;;457.85;;
60973;SDS011;46846;51.528;5.076;2022-08-03T13:21:11;484.30;;;460.92;;
60973;SDS011;46846;51.528;5.076;2022-08-03T13:23:37;475.90;;;452.25;;
60973;SDS011;46846;51.528;5.076;2022-08-03T13:26:02;481.98;;;458.27;;
60973;SDS011;46846;51.528;5.076;2022-08-03T13:28:28;482.20;;;458.33;;
60973;SDS011;46846;51.528;5.076;2022-08-03T13:30:53;490.08;;;466.35;;
60973;SDS011;46846;51.528;5.076;2022-08-03T13:33:19;469.10;;;446.30;;
60973;SDS011;46846;51.528;5.076;2022-08-03T13:35:44;471.75;;;448.80;;
60973;SDS011;46846;51.528;5.076;2022-08-03T13:38:09;486.08;;;462.38;;
60973;SDS011;46846;51.528;5.076;2022-08-03T13:40:35;494.50;;;470.60;;
60973;SDS011;46846;51.528;5.076;2022-08-03T13:43:02;495.45;;;471.52;;
60973;SDS011;46846;51.528;5.076;2022-08-03T13:45:27;488.40;;;464.58;;
60973;SDS011;46846;51.528;5.076;2022-08-03T13:47:53;488.63;;;464.77;;
60973;SDS011;46846;51.528;5.076;2022-08-03T13:50:18;485.27;;;461.70;;
60973;SDS011;46846;51.528;5.076;2022-08-03T13:52:44;495.20;;;471.10;;
60973;SDS011;46846;51.528;5.076;2022-08-03T13:55:12;483.75;;;460.10;;
60973;SDS011;46846;51.528;5.076;2022-08-03T13:57:37;498.98;;;474.75;;
60973;SDS011;46846;51.528;5.076;2022-08-03T14:00:03;487.73;;;464.00;;
60973;SDS011;46846;51.528;5.076;2022-08-03T14:02:30;484.48;;;461.00;;
60973;SDS011;46846;51.528;5.076;2022-08-03T14:04:55;502.77;;;478.30;;
60973;SDS011;46846;51.528;5.076;2022-08-03T14:07:20;491.02;;;467.40;;
60973;SDS011;46846;51.528;5.076;2022-08-03T14:09:46;487.17;;;463.20;;
60973;SDS011;46846;51.528;5.076;2022-08-03T14:12:11;484.38;;;460.65;;
60973;SDS011;46846;51.528;5.076;2022-08-03T14:14:36;500.13;;;475.88;;
60973;SDS011;46846;51.528;5.076;2022-08-03T14:17:02;487.17;;;463.52;;
60973;SDS011;46846;51.528;5.076;2022-08-03T14:19:27;487.30;;;463.63;;
60973;SDS011;46846;51.528;5.076;2022-08-03T14:21:53;489.95;;;466.10;;
60973;SDS011;46846;51.528;5.076;2022-08-03T14:24:18;480.73;;;457.33;;
60973;SDS011;46846;51.528;5.076;2022-08-03T14:26:44;498.80;;;474.67;;
60973;SDS011;46846;51.528;5.076;2022-08-03T14:29:09;476.50;;;453.50;;
60973;SDS011;46846;51.528;5.076;2022-08-03T14:31:35;481.65;;;458.02;;
60973;SDS011;46846;51.528;5.076;2022-08-03T14:34:01;487.95;;;464.35;;
60973;SDS011;46846;51.528;5.076;2022-08-03T14:36:27;492.23;;;468.20;;
60973;SDS011;46846;51.528;5.076;2022-08-03T14:38:53;496.58;;;472.48;;
60973;SDS011;46846;51.528;5.076;2022-08-03T14:41:18;484.90;;;461.45;;